Ash Grove, Missouri
Current Conditions -  °F | °C
As of 12:52 AM on Thursday 23 Oct 2014 (Local Time) from KSGF Reporting Station
Clear Clear  
Wind Chill: 11°   Ceiling: Unl
Heat Index: 11°   Visibility: 10mi
Dew Point:   Wind: 10mph
Humidity: 80%   Direction: 150°SSE
Pressure: 30.16"   Gusts: NA
Location:  37.32°N, 93.59°W
Report Text: KSGF 230552Z 15009KT 10SM CLR 11/08 A3016 RMK AO2 SLP208 T01110078 10150 20111 402280100 58000
Loading
Personal Weather Stations






























Interactive Weather Map
Tropical Storm Tracking
New forecast layout! Learn more

10-Day Weather Forecast

Advertisements
Track Severe Weather on mobile